This is the latest recevied weather packets stored in our database for station/object K9RCP-24. If no packets are shown the sender has not sent any weather packets the latest 10 day(s).
| Time | Temp. | Humidity | Pressure | Rain* | Wind** | Luminosity | Snow |
|---|---|---|---|---|---|---|---|
| 1777467047 | 3.89° C | 83% | 1028.8 hPa | 0 mm | - | - | - |
| 1777466676 | 3.89° C | 82% | 1028.8 hPa | 0 mm | - | - | - |
| 1777466143 | 4.44° C | 82% | 1028.8 hPa | 0 mm | - | - | - |
| 1777466121 | 4.44° C | 82% | 1028.8 hPa | 0 mm | - | - | - |
| 1777465861 | 4.44° C | 82% | 1028.8 hPa | 0 mm | - | - | - |
| 1777465737 | 4.44° C | 82% | 1028.8 hPa | 0 mm | - | - | - |
| 1777465614 | 4.44° C | 82% | 1028.8 hPa | 0 mm | - | - | - |
| 1777464371 | 4.44° C | 81% | 1028.8 hPa | 0 mm | - | - | - |
| 1777463716 | 4.44° C | 83% | 1028.8 hPa | 0 mm | - | - | - |
| 1777463592 | 4.44° C | 82% | 1028.8 hPa | 0 mm | - | - | - |
| 1777462536 | 5° C | 82% | 1028.8 hPa | 0 mm | - | - | - |
| 1777461753 | 5° C | 82% | 1028.4 hPa | 0 mm | - | - | - |
| 1777460230 | 5° C | 81% | 1028.4 hPa | 0 mm | - | - | - |
| 1777459449 | 5° C | 80% | 1028.4 hPa | 0 mm | - | - | - |
| 1777458079 | 5.56° C | 79% | 1028.4 hPa | 0 mm | - | - | - |
| 1777457956 | 6.11° C | 78% | 1028.1 hPa | 0 mm | - | - | - |
| 1777456178 | 6.67° C | 76% | 1028.4 hPa | 0 mm | - | - | - |
| 1777455403 | 6.67° C | 77% | 1028.4 hPa | 0 mm | - | - | - |
| 1777454378 | 7.22° C | 76% | 1028.4 hPa | 0 mm | - | - | - |
| 1777453829 | 7.22° C | 76% | 1028.4 hPa | 0 mm | - | - | - |
| 1777452821 | 7.78° C | 74% | 1028.4 hPa | 0 mm | - | - | - |
| 1777451735 | 8.89° C | 70% | 1028.4 hPa | 0 mm | - | - | - |
| 1777451209 | 8.89° C | 70% | 1028.8 hPa | 0 mm | - | - | - |
| 1777450525 | 8.89° C | 68% | 1028.8 hPa | 0 mm | - | - | - |
| 1777450503 | 8.89° C | 70% | 1028.8 hPa | 0 mm | - | - | - |
* Rain latest hour (hover to see other rain measurements)
** Current wind speed in m/s (hover to see current wind gust speed)